Time,TemperatureF,DewpointF,PressureIn,WindDirection,WindDirectionDegrees,WindSpeedMPH,WindSpeedGustMPH,Humidity,HourlyPrecipIn,Conditions,Clouds,dailyrainin,SoftwareType,DateUTC
2013-01-27 00:29:00,48.4,47.3,29.92,WSW,246,3.0,7.0,96,0.00,,,0.00,VWS V14.01,2013-01-27 08:29:00,
2013-01-27 00:59:00,48.3,47.2,29.93,WSW,243,4.0,9.0,96,0.01,,,0.01,VWS V14.01,2013-01-27 08:59:00,
2013-01-27 01:29:00,48.2,47.1,29.93,WSW,248,0.0,9.0,96,0.01,,,0.01,VWS V14.01,2013-01-27 09:29:00,
2013-01-27 01:59:00,48.1,47.3,29.92,WSW,248,5.0,12.0,97,0.02,,,0.02,VWS V14.01,2013-01-27 09:59:00,
2013-01-27 02:29:00,48.1,47.3,29.92,West,274,0.0,8.0,97,0.01,,,0.02,VWS V14.01,2013-01-27 10:29:00,
2013-01-27 02:59:00,47.9,46.8,29.92,West,277,0.0,9.0,96,0.02,,,0.03,VWS V14.01,2013-01-27 10:59:00,
2013-01-27 03:29:00,47.5,46.4,29.91,WSW,245,0.0,8.0,96,0.01,,,0.03,VWS V14.01,2013-01-27 11:29:00,
2013-01-27 03:59:00,47.2,46.1,29.91,WSW,255,4.0,11.0,96,0.02,,,0.04,VWS V14.01,2013-01-27 11:59:00,
2013-01-27 04:29:00,46.9,46.1,29.90,WNW,290,1.0,8.0,97,0.01,,,0.04,VWS V14.01,2013-01-27 12:29:00,
2013-01-27 04:59:00,46.9,45.8,29.91,WNW,291,3.0,8.0,96,0.01,,,0.04,VWS V14.01,2013-01-27 12:59:00,
2013-01-27 05:29:00,46.7,45.6,29.91,West,268,0.0,8.0,96,0.00,,,0.04,VWS V14.01,2013-01-27 13:29:00,
2013-01-27 05:59:00,46.8,45.7,29.92,SW,231,2.0,10.0,96,0.00,,,0.04,VWS V14.01,2013-01-27 13:59:00,
2013-01-27 06:29:00,46.1,45.0,29.92,WSW,256,3.0,8.0,96,0.00,,,0.04,VWS V14.01,2013-01-27 14:29:00,
2013-01-27 06:59:00,45.8,45.0,29.92,WNW,282,0.0,8.0,97,0.01,,,0.05,VWS V14.01,2013-01-27 14:59:00,
2013-01-27 07:29:00,45.5,44.4,29.93,WSW,246,0.0,5.0,96,0.01,,,0.05,VWS V14.01,2013-01-27 15:29:00,
2013-01-27 07:59:00,45.6,44.5,29.93,WSW,246,0.0,0.0,96,0.01,,,0.05,VWS V14.01,2013-01-27 15:59:00,
2013-01-27 08:29:00,46.0,45.2,29.94,West,267,0.0,5.0,97,0.00,,,0.05,VWS V14.01,2013-01-27 16:29:00,
2013-01-27 08:59:00,45.9,44.8,29.95,West,272,7.0,7.0,96,0.00,,,0.05,VWS V14.01,2013-01-27 16:59:00,
2013-01-27 09:29:00,46.1,45.0,29.95,West,276,2.0,10.0,96,0.00,,,0.05,VWS V14.01,2013-01-27 17:29:00,
2013-01-27 09:59:00,46.4,45.3,29.95,West,260,5.0,7.0,96,0.00,,,0.05,VWS V14.01,2013-01-27 17:59:00,
2013-01-27 10:30:00,47.2,45.8,29.95,WNW,282,10.0,11.0,95,0.00,,,0.05,VWS V14.01,2013-01-27 18:30:00,
2013-01-27 10:59:00,47.0,45.4,29.95,WSW,250,11.0,13.0,94,0.00,,,0.05,VWS V14.01,2013-01-27 18:59:00,
2013-01-27 11:29:00,47.7,45.8,29.94,WSW,252,4.0,14.0,93,0.00,,,0.05,VWS V14.01,2013-01-27 19:29:00,
2013-01-27 11:59:00,48.9,45.5,29.92,SW,230,4.0,15.0,88,0.00,,,0.05,VWS V14.01,2013-01-27 19:59:00,
2013-01-27 12:29:00,49.7,45.4,29.92,West,263,8.0,18.0,85,0.00,,,0.05,VWS V14.01,2013-01-27 20:29:00,
2013-01-27 12:59:00,46.9,43.5,29.91,WSW,242,9.0,21.0,88,0.00,,,0.05,VWS V14.01,2013-01-27 20:59:00,
2013-01-27 13:29:00,45.8,41.9,29.91,WSW,258,10.0,20.0,86,0.00,,,0.05,VWS V14.01,2013-01-27 21:29:00,
2013-01-27 13:59:00,45.6,42.3,29.90,WSW,256,11.0,18.0,88,0.00,,,0.05,VWS V14.01,2013-01-27 21:59:00,
2013-01-27 14:29:00,46.9,41.7,29.90,SSW,205,9.0,23.0,82,0.00,,,0.05,VWS V14.01,2013-01-27 22:29:00,
2013-01-27 14:59:00,44.9,40.7,29.90,West,276,12.0,18.0,85,0.00,,,0.05,VWS V14.01,2013-01-27 22:59:00,
2013-01-27 15:29:00,43.6,40.3,29.90,WNW,289,4.0,16.0,88,0.00,,,0.05,VWS V14.01,2013-01-27 23:29:00,
2013-01-27 15:59:00,43.1,39.2,29.90,WSW,254,5.0,15.0,86,0.00,,,0.05,VWS V14.01,2013-01-27 23:59:00,
2013-01-27 16:29:00,41.6,37.7,29.90,West,264,9.0,14.0,86,0.00,,,0.05,VWS V14.01,2013-01-28 00:29:00,
2013-01-27 16:59:00,40.7,37.1,29.90,West,273,2.0,16.0,87,0.00,,,0.05,VWS V14.01,2013-01-28 00:59:00,
2013-01-27 17:29:00,39.7,36.2,29.91,SW,225,7.0,16.0,87,0.00,,,0.05,VWS V14.01,2013-01-28 01:29:00,
2013-01-27 17:59:00,39.8,36.5,29.91,SW,235,7.0,14.0,88,0.00,,,0.05,VWS V14.01,2013-01-28 01:59:00,
2013-01-27 18:29:00,39.6,36.3,29.92,SW,218,6.0,13.0,88,0.00,,,0.05,VWS V14.01,2013-01-28 02:29:00,
2013-01-27 18:59:00,38.8,35.8,29.92,WSW,253,8.0,18.0,89,0.00,,,0.05,VWS V14.01,2013-01-28 02:59:00,
2013-01-27 19:29:00,38.2,35.0,29.93,WSW,238,6.0,16.0,88,0.00,,,0.05,VWS V14.01,2013-01-28 03:29:00,
2013-01-27 19:59:00,38.4,35.5,29.93,WSW,251,10.0,17.0,89,0.00,,,0.05,VWS V14.01,2013-01-28 03:59:00,
2013-01-27 20:29:00,38.1,36.0,29.93,West,264,6.0,15.0,92,0.00,,,0.05,VWS V14.01,2013-01-28 04:29:00,
2013-01-27 20:59:00,37.7,35.3,29.93,WSW,247,5.0,15.0,91,0.00,,,0.05,VWS V14.01,2013-01-28 04:59:00,
2013-01-27 21:29:00,37.6,35.8,29.93,West,259,2.0,11.0,93,0.00,,,0.05,VWS V14.01,2013-01-28 05:29:00,
2013-01-27 21:59:00,37.8,36.0,29.94,West,262,9.0,17.0,93,0.00,,,0.05,VWS V14.01,2013-01-28 05:59:00,
2013-01-27 22:29:00,37.1,35.0,29.94,WSW,247,10.0,19.0,92,0.00,,,0.05,VWS V14.01,2013-01-28 06:29:00,
2013-01-27 22:59:00,36.9,35.1,29.95,WNW,295,5.0,12.0,93,0.00,,,0.05,VWS V14.01,2013-01-28 06:59:00,
2013-01-27 23:29:00,37.4,35.8,29.95,WNW,288,5.0,14.0,94,0.00,,,0.05,VWS V14.01,2013-01-28 07:29:00,
2013-01-27 23:59:00,36.6,35.0,29.95,West,262,5.0,12.0,94,0.00,,,0.00,VWS V14.01,2013-01-28 07:59:00,